Time;durP1;ratioP1;P1;durP2;ratioP2;P2;SDS_P1;SDS_P2;PMS_P1;PMS_P2;Temp;Humidity;BMP_temperature;BMP_pressure;BME280_temperature;BME280_humidity;BME280_pressure;Samples;Min_cycle;Max_cycle;Signal;HPM_P1;HPM_P2
2022/08/04 00:00:14;;;;;;;0.40;0.40;;;14.60;99.90;;;;;;5031864;28;20196;-81
2022/08/04 00:03:09;;;;;;;0.70;0.70;;;14.60;99.90;;;;;;5031596;28;20202;-81
2022/08/04 00:05:41;;;;;;;0.43;0.43;;;14.60;99.90;;;;;;5031591;28;20722;-81
2022/08/04 00:08:41;;;;;;;0.40;0.40;;;14.50;99.90;;;;;;5031646;28;20198;-82
2022/08/04 00:11:09;;;;;;;0.60;0.60;;;14.40;99.90;;;;;;5034433;28;20661;-82
2022/08/04 00:13:38;;;;;;;0.70;0.70;;;14.30;99.90;;;;;;5046215;28;20231;-82
2022/08/04 00:16:09;;;;;;;0.68;0.68;;;14.20;99.90;;;;;;5051624;28;20220;-82
2022/08/04 00:18:54;;;;;;;0.50;0.50;;;14.20;99.90;;;;;;5035090;28;20197;-82
2022/08/04 00:21:22;;;;;;;0.60;0.60;;;14.00;99.90;;;;;;5050308;28;20198;-82
2022/08/04 00:23:48;;;;;;;0.40;0.40;;;14.00;99.90;;;;;;5050560;28;20200;-82
2022/08/04 00:26:17;;;;;;;0.40;0.40;;;13.90;99.90;;;;;;5050636;28;20311;-82
2022/08/04 00:28:43;;;;;;;0.50;0.50;;;13.90;99.90;;;;;;5050355;28;20217;-82
2022/08/04 00:31:09;;;;;;;0.47;0.47;;;13.80;99.90;;;;;;5053294;28;20209;-82
2022/08/04 00:33:36;;;;;;;0.80;0.80;;;13.70;99.90;;;;;;5050054;28;20257;-86
2022/08/04 00:36:03;;;;;;;0.70;0.70;;;13.70;99.90;;;;;;5033503;28;20202;-82
2022/08/04 00:38:29;;;;;;;0.63;0.63;;;13.80;99.90;;;;;;5032612;28;20226;-82
2022/08/04 00:41:32;;;;;;;0.40;0.40;;;13.80;99.90;;;;;;5034840;28;20190;-82
2022/08/04 00:44:21;;;;;;;1.20;0.80;;;13.80;99.90;;;;;;5033253;28;20234;-82
2022/08/04 00:47:22;;;;;;;0.63;0.63;;;13.80;99.90;;;;;;5033488;28;20191;-82
2022/08/04 00:49:54;;;;;;;0.68;0.68;;;13.80;99.90;;;;;;5022961;28;20209;-82
2022/08/04 00:52:40;;;;;;;0.80;0.80;;;13.70;99.90;;;;;;5033391;28;20264;-82
2022/08/04 00:55:42;;;;;;;0.40;0.40;;;13.70;99.90;;;;;;5033335;28;20194;-81
2022/08/04 00:58:33;;;;;;;7.05;1.23;;;13.70;99.90;;;;;;5033128;28;20695;-81
2022/08/04 01:01:03;;;;;;;2.30;1.15;;;13.60;99.90;;;;;;5033647;28;20669;-80
2022/08/04 01:03:49;;;;;;;0.82;0.70;;;13.60;99.90;;;;;;5032806;28;20281;-79
2022/08/04 01:07:05;;;;;;;0.82;0.68;;;13.60;99.90;;;;;;5033042;28;20234;-79
2022/08/04 01:09:41;;;;;;;1.13;1.13;;;13.50;99.90;;;;;;5039188;28;20194;-79
2022/08/04 01:12:32;;;;;;;0.60;0.60;;;13.50;99.90;;;;;;5032867;28;20209;-80
2022/08/04 01:15:25;;;;;;;0.52;0.52;;;13.40;99.90;;;;;;5034129;28;20198;-79
2022/08/04 01:18:02;;;;;;;0.85;0.85;;;13.40;99.90;;;;;;5049328;28;20668;-79
2022/08/04 01:21:09;;;;;;;0.50;0.50;;;13.30;99.90;;;;;;5069144;28;20194;-80
2022/08/04 01:23:56;;;;;;;0.52;0.52;;;13.30;99.90;;;;;;5067189;28;20193;-80
2022/08/04 01:26:49;;;;;;;0.55;0.55;;;13.30;99.90;;;;;;5068708;28;20224;-80
2022/08/04 01:29:16;;;;;;;0.52;0.52;;;13.30;99.90;;;;;;5069086;28;20209;-80
2022/08/04 01:32:06;;;;;;;0.40;0.40;;;13.30;99.90;;;;;;5048708;28;20213;-80
2022/08/04 01:34:42;;;;;;;1.52;0.90;;;13.50;99.90;;;;;;5032071;28;20190;-80
2022/08/04 01:37:31;;;;;;;2.80;0.90;;;13.50;99.90;;;;;;5049282;28;20224;-80
2022/08/04 01:40:04;;;;;;;0.75;0.70;;;13.50;99.90;;;;;;5033458;28;20685;-80
2022/08/04 01:42:35;;;;;;;2.70;0.75;;;13.60;99.90;;;;;;5033089;28;20201;-82
2022/08/04 01:45:07;;;;;;;0.98;0.63;;;13.70;99.90;;;;;;5033657;28;20204;-81
2022/08/04 01:47:42;;;;;;;3.92;1.38;;;13.80;99.90;;;;;;5031968;28;20209;-81
2022/08/04 01:50:10;;;;;;;0.52;0.52;;;13.80;99.90;;;;;;5033229;28;20189;-80
2022/08/04 01:52:39;;;;;;;0.82;0.82;;;13.90;99.90;;;;;;5031704;28;20205;-79
2022/08/04 01:55:09;;;;;;;0.93;0.70;;;14.00;99.90;;;;;;5031672;28;20670;-85
2022/08/04 01:57:51;;;;;;;0.55;0.55;;;14.00;99.90;;;;;;5031213;28;20463;-80
2022/08/04 02:00:22;;;;;;;0.38;0.38;;;13.90;99.90;;;;;;5034185;28;20251;-81
2022/08/04 02:02:49;;;;;;;0.57;0.57;;;13.80;99.90;;;;;;5052486;28;20556;-80
2022/08/04 02:05:17;;;;;;;0.60;0.60;;;13.70;99.90;;;;;;5058621;28;20201;-81
2022/08/04 02:07:48;;;;;;;0.65;0.65;;;13.60;99.90;;;;;;5072472;28;20262;-80
2022/08/04 02:10:26;;;;;;;0.90;0.82;;;13.40;99.90;;;;;;5074180;28;20566;-81
2022/08/04 02:13:18;;;;;;;0.60;0.60;;;13.30;99.90;;;;;;5072641;28;20699;-80
2022/08/04 02:16:09;;;;;;;3.47;1.63;;;13.30;99.90;;;;;;5072332;28;20572;-80
2022/08/04 02:18:44;;;;;;;0.40;0.40;;;13.30;99.90;;;;;;5052925;28;20197;-81
2022/08/04 02:21:11;;;;;;;0.40;0.40;;;13.20;99.90;;;;;;5053159;28;20548;-81
2022/08/04 02:23:42;;;;;;;0.50;0.50;;;13.10;99.90;;;;;;5051945;28;20254;-81
2022/08/04 02:26:16;;;;;;;0.50;0.50;;;13.00;99.90;;;;;;5048862;28;20238;-80
2022/08/04 02:29:16;;;;;;;0.40;0.40;;;13.00;99.90;;;;;;5032490;28;20209;-80
2022/08/04 02:31:54;;;;;;;0.47;0.47;;;12.80;99.90;;;;;;5013834;28;20279;-80
2022/08/04 02:34:47;;;;;;;0.60;0.60;;;12.70;99.90;;;;;;5030861;28;20202;-81
2022/08/04 02:37:16;;;;;;;0.40;0.40;;;12.70;99.90;;;;;;5032421;28;20220;-80
2022/08/04 02:39:43;;;;;;;0.77;0.77;;;12.60;99.90;;;;;;5032977;28;20225;-81
2022/08/04 02:42:11;;;;;;;0.55;0.55;;;12.50;99.90;;;;;;5032694;28;20200;-82
2022/08/04 02:44:39;;;;;;;1.52;0.88;;;12.50;99.90;;;;;;5031574;28;20244;-81
2022/08/04 02:47:06;;;;;;;1.75;1.20;;;12.40;99.90;;;;;;5032087;28;20612;-80
2022/08/04 02:49:36;;;;;;;0.50;0.50;;;12.30;99.90;;;;;;5032027;28;20198;-80
2022/08/04 02:52:03;;;;;;;0.55;0.55;;;12.30;99.90;;;;;;5032477;28;20750;-81
2022/08/04 02:54:34;;;;;;;0.47;0.47;;;12.20;99.90;;;;;;5032920;28;20190;-80
2022/08/04 02:57:01;;;;;;;0.82;0.82;;;12.30;99.90;;;;;;5032058;28;20198;-80
2022/08/04 02:59:36;;;;;;;0.50;0.50;;;12.30;99.90;;;;;;5032025;28;20198;-81
2022/08/04 03:02:02;;;;;;;0.43;0.43;;;12.50;99.90;;;;;;5048872;28;20567;-80
2022/08/04 03:04:53;;;;;;;0.50;0.50;;;12.50;99.90;;;;;;5051783;28;20204;-80
2022/08/04 03:07:37;;;;;;;0.90;0.85;;;12.70;99.90;;;;;;5053206;28;20276;-82
2022/08/04 03:10:03;;;;;;;0.50;0.50;;;12.80;99.90;;;;;;5051488;28;20193;-80
2022/08/04 03:13:05;;;;;;;0.50;0.50;;;12.90;99.90;;;;;;5051435;28;20236;-81
2022/08/04 03:16:08;;;;;;;0.70;0.70;;;13.00;99.90;;;;;;5051658;28;20193;-80
2022/08/04 03:18:34;;;;;;;0.50;0.50;;;13.10;99.90;;;;;;5051640;28;20203;-80
2022/08/04 03:21:21;;;;;;;1.25;0.98;;;13.20;99.90;;;;;;5051510;28;20665;-81
2022/08/04 03:24:05;;;;;;;0.85;0.82;;;13.20;99.90;;;;;;5052845;28;20281;-80
2022/08/04 03:27:08;;;;;;;0.57;0.57;;;13.30;99.90;;;;;;5051646;28;20644;-80
2022/08/04 03:29:55;;;;;;;0.50;0.50;;;13.40;99.90;;;;;;5051352;28;20201;-78
2022/08/04 03:32:42;;;;;;;0.50;0.50;;;13.50;99.90;;;;;;5051104;28;20208;-80
2022/08/04 03:35:19;;;;;;;0.40;0.40;;;13.60;99.90;;;;;;5051707;28;20292;-80
2022/08/04 03:38:17;;;;;;;0.80;0.80;;;13.70;99.90;;;;;;5051631;28;20197;-80
2022/08/04 03:41:01;;;;;;;0.80;0.80;;;13.60;99.90;;;;;;5035615;28;20300;-82
2022/08/04 03:43:48;;;;;;;0.52;0.52;;;13.60;99.90;;;;;;5050873;28;20757;-80
2022/08/04 03:46:22;;;;;;;0.57;0.57;;;13.50;99.90;;;;;;5054029;28;20562;-80
2022/08/04 03:48:51;;;;;;;0.47;0.47;;;13.60;99.90;;;;;;5055173;28;20663;-80
2022/08/04 03:54:32;;;;;;;2.78;0.98;;;13.80;99.90;;;;;;5056330;28;20204;-80
2022/08/04 03:57:26;;;;;;;0.40;0.40;;;13.90;99.90;;;;;;5055426;28;20553;-80
2022/08/04 04:00:16;;;;;;;2.95;1.02;;;14.00;99.90;;;;;;5050931;28;20204;-81
2022/08/04 04:02:41;;;;;;;0.50;0.50;;;14.10;99.90;;;;;;5051802;28;20285;-80
2022/08/04 04:05:19;;;;;;;1.02;1.02;;;14.20;99.90;;;;;;5034141;28;20244;-79
2022/08/04 04:08:00;;;;;;;0.52;0.52;;;14.20;99.90;;;;;;5035187;28;20202;-79
2022/08/04 04:11:01;;;;;;;0.65;0.65;;;14.30;99.90;;;;;;5035015;28;20229;-80
2022/08/04 04:13:56;;;;;;;0.65;0.65;;;14.40;99.90;;;;;;5050892;28;20233;-80
2022/08/04 04:16:48;;;;;;;0.50;0.50;;;14.50;99.90;;;;;;5034831;28;20205;-80
2022/08/04 04:19:35;;;;;;;0.40;0.40;;;14.60;99.90;;;;;;5053818;28;20559;-80
2022/08/04 04:22:22;;;;;;;0.57;0.57;;;14.60;99.90;;;;;;5055834;28;20708;-80
2022/08/04 04:24:58;;;;;;;0.85;0.82;;;14.60;99.90;;;;;;5054319;28;20201;-79
2022/08/04 04:27:29;;;;;;;9.27;1.17;;;14.60;99.90;;;;;;5053586;28;20251;-80
2022/08/04 04:30:07;;;;;;;0.60;0.60;;;14.70;99.90;;;;;;5054323;28;20208;-81
2022/08/04 04:33:03;;;;;;;0.77;0.77;;;14.70;99.90;;;;;;5053752;28;20224;-80
2022/08/04 04:35:49;;;;;;;0.70;0.70;;;14.80;99.90;;;;;;5054516;28;20217;-79
2022/08/04 04:38:42;;;;;;;1.15;0.88;;;14.90;99.90;;;;;;5053098;28;20680;-80
2022/08/04 04:41:29;;;;;;;4.97;1.15;;;14.90;99.90;;;;;;5045568;28;20198;-79
2022/08/04 04:43:58;;;;;;;0.50;0.50;;;15.00;99.90;;;;;;5034733;28;20226;-80
2022/08/04 04:46:35;;;;;;;0.60;0.60;;;15.00;99.90;;;;;;5033358;28;20587;-83
2022/08/04 04:49:19;;;;;;;0.40;0.40;;;15.10;99.90;;;;;;5033884;28;20229;-78
2022/08/04 04:52:05;;;;;;;0.73;0.73;;;15.80;99.90;;;;;;5032457;28;20676;-76
2022/08/04 04:54:37;;;;;;;0.50;0.50;;;16.50;99.90;;;;;;5043336;28;20204;-76
2022/08/04 04:57:27;;;;;;;1.35;0.90;;;17.30;99.90;;;;;;5053626;28;20662;-76
2022/08/04 04:59:59;;;;;;;8.27;0.65;;;18.10;99.90;;;;;;5052265;28;20711;-76
2022/08/04 05:02:30;;;;;;;0.47;0.47;;;18.50;99.90;;;;;;5035589;28;20224;-76
2022/08/04 05:05:20;;;;;;;0.32;0.32;;;18.70;99.90;;;;;;5052064;28;20660;-76
2022/08/04 05:08:10;;;;;;;1.45;0.68;;;18.90;99.90;;;;;;5052071;28;20235;-76
2022/08/04 05:10:47;;;;;;;0.60;0.60;;;19.00;99.90;;;;;;5051854;28;20672;-77
2022/08/04 05:13:21;;;;;;;0.52;0.52;;;18.50;99.90;;;;;;5048406;28;20684;-76
2022/08/04 05:15:51;;;;;;;0.85;0.75;;;18.30;99.90;;;;;;5044082;28;20539;-76
2022/08/04 05:18:24;;;;;;;1.42;0.98;;;18.40;99.90;;;;;;5068285;28;20194;-76
2022/08/04 05:20:55;;;;;;;1.48;0.95;;;18.60;99.90;;;;;;5053045;28;20201;-76
2022/08/04 05:23:26;;;;;;;0.65;0.50;;;19.00;99.90;;;;;;5053011;28;20243;-76
2022/08/04 05:26:01;;;;;;;0.43;0.38;;;19.20;99.90;;;;;;5051662;28;20202;-76
2022/08/04 05:28:40;;;;;;;0.50;0.50;;;18.90;99.90;;;;;;5052725;28;20596;-76
2022/08/04 05:31:20;;;;;;;3.05;0.90;;;18.60;99.90;;;;;;5068383;28;20204;-77
2022/08/04 05:33:59;;;;;;;0.60;0.60;;;18.60;99.90;;;;;;5068009;28;20616;-76
2022/08/04 05:36:35;;;;;;;13.65;1.10;;;18.50;99.90;;;;;;5067876;28;20193;-77
2022/08/04 05:39:02;;;;;;;0.55;0.55;;;18.70;99.90;;;;;;5068112;28;20679;-77
2022/08/04 05:41:28;;;;;;;0.45;0.40;;;18.90;99.90;;;;;;5052473;28;20652;-76
2022/08/04 05:43:55;;;;;;;0.40;0.40;;;19.30;99.90;;;;;;5052541;28;20308;-76
2022/08/04 05:46:21;;;;;;;0.40;0.40;;;19.40;99.90;;;;;;5067764;28;20224;-77
2022/08/04 05:48:48;;;;;;;0.85;0.47;;;19.60;99.90;;;;;;5052624;28;20219;-77
2022/08/04 05:51:15;;;;;;;0.32;0.32;;;19.50;99.90;;;;;;5081560;28;20197;-75
2022/08/04 05:53:43;;;;;;;1.95;0.70;;;19.40;99.90;;;;;;5070921;28;20703;-76
2022/08/04 05:56:12;;;;;;;0.60;0.60;;;19.50;99.90;;;;;;5072490;28;20609;-76
2022/08/04 05:58:39;;;;;;;0.68;0.68;;;19.50;99.90;;;;;;5072046;28;20712;-76
2022/08/04 06:01:08;;;;;;;0.60;0.57;;;19.50;99.90;;;;;;5070858;28;20674;-76
2022/08/04 06:03:35;;;;;;;1.15;0.30;;;19.60;99.90;;;;;;5070551;28;20320;-75
2022/08/04 06:06:02;;;;;;;0.55;0.50;;;19.50;99.90;;;;;;5032987;28;20236;-76
2022/08/04 06:08:30;;;;;;;0.45;0.40;;;19.40;99.90;;;;;;5051029;28;20194;-75
2022/08/04 06:11:00;;;;;;;13.98;0.55;;;19.50;99.90;;;;;;5050437;28;20201;-75
2022/08/04 06:13:33;;;;;;;1.23;0.68;;;19.40;99.90;;;;;;5051812;28;20220;-76
2022/08/04 06:16:01;;;;;;;0.30;0.30;;;19.40;99.90;;;;;;5050516;28;20197;-76
2022/08/04 06:18:29;;;;;;;0.98;0.55;;;19.60;99.90;;;;;;5050418;28;20194;-76
2022/08/04 06:20:57;;;;;;;0.40;0.40;;;19.90;99.90;;;;;;5067397;28;20635;-75
2022/08/04 06:23:28;;;;;;;17.65;0.77;;;19.90;99.90;;;;;;5051498;28;20545;-75
2022/08/04 06:25:58;;;;;;;0.63;0.50;;;20.20;99.90;;;;;;5051880;28;20212;-77
2022/08/04 06:28:25;;;;;;;0.57;0.57;;;20.30;99.90;;;;;;5051688;28;20688;-76
2022/08/04 06:30:53;;;;;;;0.65;0.50;;;20.00;99.90;;;;;;5051843;28;20692;-75
2022/08/04 06:33:33;;;;;;;2.05;0.82;;;19.90;99.90;;;;;;5050784;28;20328;-76
2022/08/04 06:36:05;;;;;;;0.20;0.20;;;19.90;99.90;;;;;;5067260;28;20221;-76
2022/08/04 06:38:34;;;;;;;0.52;0.52;;;19.80;99.90;;;;;;5051511;28;20272;-76
2022/08/04 06:41:02;;;;;;;11.48;0.73;;;20.10;99.90;;;;;;5051459;28;20193;-76
2022/08/04 06:43:30;;;;;;;0.32;0.32;;;20.00;99.90;;;;;;5049684;28;20244;-76
2022/08/04 06:45:58;;;;;;;1.00;0.70;;;19.60;99.90;;;;;;5050290;28;20259;-75
2022/08/04 06:48:25;;;;;;;0.77;0.35;;;19.50;99.90;;;;;;5050611;28;20747;-75
2022/08/04 06:50:56;;;;;;;0.40;0.40;;;19.80;99.90;;;;;;5050843;28;20200;-76
2022/08/04 06:53:23;;;;;;;0.35;0.35;;;20.10;99.90;;;;;;5049012;28;20263;-76
2022/08/04 06:55:49;;;;;;;0.88;0.65;;;20.40;99.90;;;;;;5050740;28;20220;-75
2022/08/04 06:58:16;;;;;;;12.02;0.82;;;20.00;99.90;;;;;;5049295;28;20620;-75
2022/08/04 07:00:44;;;;;;;0.98;0.65;;;20.00;99.90;;;;;;5049114;28;20220;-76
2022/08/04 07:03:11;;;;;;;0.40;0.35;;;20.10;99.90;;;;;;5050572;28;20197;-75
2022/08/04 07:05:38;;;;;;;7.43;1.02;;;20.10;99.90;;;;;;5050247;28;20665;-75
2022/08/04 07:08:05;;;;;;;0.30;0.30;;;20.20;99.90;;;;;;5050261;28;20660;-76
2022/08/04 07:10:30;;;;;;;0.43;0.43;;;19.90;99.90;;;;;;5049040;28;20209;-76
2022/08/04 07:12:57;;;;;;;3.22;1.48;;;20.20;99.90;;;;;;5050631;28;20204;-76
2022/08/04 07:15:24;;;;;;;6.00;4.45;;;20.40;99.90;;;;;;5049694;28;20205;-76
2022/08/04 07:17:51;;;;;;;1.48;1.23;;;20.70;99.90;;;;;;5049076;28;20194;-76
2022/08/04 07:20:18;;;;;;;3.95;1.52;;;21.00;99.90;;;;;;5050604;28;20698;-76
2022/08/04 07:22:46;;;;;;;1.65;1.35;;;20.90;99.90;;;;;;5052673;28;20197;-76
2022/08/04 07:25:15;;;;;;;14.68;6.00;;;20.60;99.90;;;;;;5052527;28;20588;-76
2022/08/04 07:27:42;;;;;;;11.63;6.40;;;20.80;99.90;;;;;;5054201;28;20205;-75
2022/08/04 07:30:08;;;;;;;9.55;6.18;;;20.80;99.90;;;;;;5053970;28;20197;-76
2022/08/04 07:32:36;;;;;;;3.80;2.55;;;20.80;99.90;;;;;;5052286;28;20249;-76
2022/08/04 07:35:04;;;;;;;3.40;1.70;;;20.70;99.90;;;;;;5052424;28;20232;-75
2022/08/04 07:37:30;;;;;;;3.83;2.55;;;20.80;99.90;;;;;;5052232;28;20190;-76
2022/08/04 07:39:56;;;;;;;6.57;2.28;;;20.50;99.90;;;;;;5053707;28;20216;-75
2022/08/04 07:42:22;;;;;;;3.42;0.85;;;20.40;99.90;;;;;;5052056;28;20212;-76
2022/08/04 07:44:48;;;;;;;1.00;0.98;;;20.60;99.90;;;;;;5006205;28;1363598;-76
2022/08/04 07:47:13;;;;;;;0.47;0.30;;;20.70;99.90;;;;;;5053543;28;20205;-76
2022/08/04 07:49:43;;;;;;;1.23;1.02;;;21.10;99.90;;;;;;5053278;28;20205;-77
2022/08/04 07:52:09;;;;;;;2.45;2.08;;;21.10;99.90;;;;;;5053693;28;20201;-76
2022/08/04 07:54:36;;;;;;;4.28;0.80;;;21.30;99.90;;;;;;5054334;28;20193;-76
2022/08/04 07:57:02;;;;;;;0.73;0.55;;;21.50;99.90;;;;;;5053499;28;20201;-77
2022/08/04 07:59:28;;;;;;;2.38;2.17;;;21.70;99.90;;;;;;5053087;28;20612;-76
2022/08/04 08:01:57;;;;;;;1.95;1.35;;;21.60;99.90;;;;;;5054438;28;20225;-77
2022/08/04 08:04:24;;;;;;;0.28;0.20;;;21.80;99.90;;;;;;5054171;28;20204;-77
2022/08/04 08:06:50;;;;;;;0.35;0.28;;;21.60;99.90;;;;;;5053168;28;20221;-77
2022/08/04 08:09:20;;;;;;;0.47;0.47;;;21.60;99.90;;;;;;5054262;28;20200;-77
2022/08/04 08:11:47;;;;;;;0.60;0.60;;;21.70;99.90;;;;;;5049584;28;20662;-77
2022/08/04 08:14:15;;;;;;;0.20;0.20;;;22.10;99.90;;;;;;5038028;28;20346;-77
2022/08/04 08:16:41;;;;;;;0.32;0.32;;;22.00;99.90;;;;;;5052612;28;20281;-77
2022/08/04 08:19:07;;;;;;;0.30;0.30;;;22.20;99.90;;;;;;5052855;28;20198;-77
2022/08/04 08:21:33;;;;;;;0.32;0.30;;;21.70;99.90;;;;;;5053795;28;20196;-76
2022/08/04 08:23:59;;;;;;;0.32;0.30;;;21.70;99.90;;;;;;5053990;28;20192;-77
2022/08/04 08:26:26;;;;;;;0.30;0.30;;;22.10;99.90;;;;;;5054004;28;20185;-76
2022/08/04 08:28:52;;;;;;;2.17;0.70;;;22.30;99.90;;;;;;5054084;28;20203;-76
2022/08/04 08:31:18;;;;;;;1.65;0.38;;;22.20;99.90;;;;;;5053356;28;20181;-76
2022/08/04 08:33:44;;;;;;;0.60;0.50;;;21.90;99.90;;;;;;5053845;28;20213;-75
2022/08/04 08:36:30;;;;;;;2.60;1.27;;;21.80;99.90;;;;;;5052698;28;20197;-76
2022/08/04 08:39:10;;;;;;;11.35;1.33;;;22.30;99.90;;;;;;5052821;28;20740;-76
2022/08/04 08:42:08;;;;;;;0.90;0.80;;;22.70;99.90;;;;;;5052227;28;20224;-75
2022/08/04 08:44:53;;;;;;;1.77;0.63;;;22.90;99.90;;;;;;5053554;28;20228;-76
2022/08/04 08:47:39;;;;;;;1.48;1.02;;;23.30;99.90;;;;;;5052127;28;20201;-76
2022/08/04 08:50:23;;;;;;;4.15;1.15;;;23.40;99.90;;;;;;5053696;28;20189;-76
2022/08/04 08:52:58;;;;;;;1.50;0.90;;;23.30;99.90;;;;;;5053618;28;20224;-76
2022/08/04 08:55:42;;;;;;;1.80;1.02;;;23.10;99.90;;;;;;5051931;28;20561;-77
2022/08/04 08:58:58;;;;;;;2.42;1.40;;;22.90;99.90;;;;;;5053648;28;20207;-76
2022/08/04 09:01:33;;;;;;;1.52;0.88;;;23.20;99.90;;;;;;5048458;28;20695;-76
2022/08/04 09:04:17;;;;;;;2.05;1.02;;;23.30;99.90;;;;;;5032120;28;20228;-76
2022/08/04 09:06:51;;;;;;;4.85;1.10;;;23.20;99.90;;;;;;5036799;28;20209;-75
2022/08/04 09:09:31;;;;;;;1.52;0.95;;;23.40;99.90;;;;;;5051965;28;20201;-76
2022/08/04 09:11:56;;;;;;;1.58;1.15;;;23.80;99.90;;;;;;5048462;28;20209;-76
2022/08/04 09:14:38;;;;;;;2.00;1.15;;;24.30;99.90;;;;;;5038646;28;20186;-76
2022/08/04 09:17:09;;;;;;;0.30;0.30;;;24.40;99.90;;;;;;5051917;28;20288;-76
2022/08/04 09:19:51;;;;;;;0.70;0.50;;;24.30;99.90;;;;;;5052940;28;20216;-75
2022/08/04 09:22:28;;;;;;;0.20;0.20;;;24.40;99.90;;;;;;5051989;28;20217;-76
2022/08/04 09:25:25;;;;;;;0.20;0.20;;;24.30;99.90;;;;;;5052860;28;20193;-75
2022/08/04 09:28:01;;;;;;;0.68;0.50;;;23.70;99.90;;;;;;5051993;28;20209;-76
2022/08/04 09:31:06;;;;;;;0.20;0.20;;;23.90;99.90;;;;;;5052568;28;20193;-76
2022/08/04 09:33:37;;;;;;;0.00;0.00;;;23.50;99.90;;;;;;5050822;28;20236;-76
2022/08/04 09:36:14;;;;;;;0.10;0.10;;;22.90;99.90;;;;;;5051498;28;20205;-76
2022/08/04 09:39:01;;;;;;;6.10;0.60;;;22.80;99.90;;;;;;5052513;28;20513;-76
2022/08/04 09:41:34;;;;;;;0.22;0.22;;;22.50;99.90;;;;;;5051445;28;20557;-76
2022/08/04 09:44:18;;;;;;;0.20;0.20;;;22.50;99.90;;;;;;5050344;28;20229;-76
2022/08/04 09:46:59;;;;;;;3.60;1.10;;;23.10;99.90;;;;;;5052662;28;20667;-76
2022/08/04 09:49:34;;;;;;;0.10;0.10;;;24.40;99.90;;;;;;5052170;28;20193;-76
2022/08/04 09:52:15;;;;;;;2.35;0.43;;;24.20;99.90;;;;;;5051054;28;20262;-76
2022/08/04 09:55:32;;;;;;;5.47;0.38;;;24.20;99.90;;;;;;5052332;28;20181;-76
2022/08/04 09:58:10;;;;;;;0.47;0.40;;;24.40;99.90;;;;;;5041709;28;20217;-76
2022/08/04 10:00:44;;;;;;;0.40;0.40;;;24.50;99.90;;;;;;5030745;28;20570;-76
2022/08/04 10:03:12;;;;;;;0.20;0.20;;;24.30;99.90;;;;;;5038890;28;20573;-76
2022/08/04 10:06:03;;;;;;;0.28;0.28;;;23.90;99.90;;;;;;5050852;28;20240;-81
2022/08/04 10:09:00;;;;;;;14.60;0.60;;;23.80;99.90;;;;;;5050892;28;20216;-81
2022/08/04 10:11:43;;;;;;;0.20;0.20;;;24.20;99.90;;;;;;5051768;28;20695;-80
2022/08/04 10:14:39;;;;;;;1.05;0.80;;;24.20;99.90;;;;;;5052084;28;20685;-80
2022/08/04 10:18:02;;;;;;;0.30;0.30;;;23.80;99.90;;;;;;5052224;28;20190;-81
2022/08/04 10:20:55;;;;;;;0.30;0.30;;;23.40;99.90;;;;;;5029589;28;20277;-81
2022/08/04 10:23:43;;;;;;;0.25;0.25;;;22.90;99.90;;;;;;5013221;28;20194;-80
2022/08/04 10:26:24;;;;;;;1.60;0.68;;;22.90;99.90;;;;;;5013099;28;20210;-81
2022/08/04 10:29:00;;;;;;;0.85;0.60;;;23.30;99.90;;;;;;5029501;28;20608;-80
2022/08/04 10:31:33;;;;;;;0.68;0.57;;;23.80;99.90;;;;;;5012697;28;20212;-81
2022/08/04 10:34:23;;;;;;;0.20;0.20;;;24.60;99.90;;;;;;5029406;28;20704;-81
2022/08/04 10:37:14;;;;;;;0.30;0.30;;;25.00;99.90;;;;;;5012769;28;20653;-81
2022/08/04 10:43:00;;;;;;;0.10;0.10;;;25.00;99.90;;;;;;5029398;28;20228;-80
2022/08/04 10:45:44;;;;;;;0.30;0.30;;;24.30;99.90;;;;;;5012459;28;20225;-81
2022/08/04 10:48:21;;;;;;;0.13;0.13;;;24.50;99.90;;;;;;5029538;28;20191;-80
2022/08/04 10:51:03;;;;;;;0.47;0.47;;;24.90;99.90;;;;;;5036178;28;20236;-81
2022/08/04 10:53:33;;;;;;;0.55;0.50;;;25.10;99.90;;;;;;5046246;28;20221;-81
2022/08/04 10:56:14;;;;;;;0.20;0.20;;;25.40;99.90;;;;;;5032120;28;20539;-81
2022/08/04 10:58:45;;;;;;;0.10;0.10;;;25.80;99.90;;;;;;5031914;28;20607;-80
2022/08/04 11:01:19;;;;;;;0.30;0.30;;;25.80;99.90;;;;;;5052012;28;20182;-80
2022/08/04 11:03:54;;;;;;;0.40;0.40;;;25.70;99.90;;;;;;5049986;28;20280;-80
2022/08/04 11:06:22;;;;;;;1.60;0.82;;;25.10;99.90;;;;;;5048842;28;20280;-80
2022/08/04 11:08:53;;;;;;;1.55;1.05;;;24.20;99.90;;;;;;5046649;28;20209;-81
2022/08/04 11:11:40;;;;;;;0.20;0.20;;;23.90;99.90;;;;;;5030355;28;20359;-81
2022/08/04 11:14:30;;;;;;;1.55;0.40;;;23.80;99.90;;;;;;5046343;28;20746;-80
2022/08/04 11:17:32;;;;;;;0.40;0.40;;;23.60;99.90;;;;;;5031593;28;20197;-80
2022/08/04 11:20:13;;;;;;;1.00;0.73;;;23.50;99.90;;;;;;5026296;28;20507;-75
2022/08/04 11:23:02;;;;;;;0.35;0.35;;;23.40;99.90;;;;;;5030883;28;20920;-76
2022/08/04 11:25:35;;;;;;;1.73;0.55;;;23.30;99.90;;;;;;5029191;28;20206;-75
2022/08/04 11:28:08;;;;;;;0.28;0.28;;;23.10;99.90;;;;;;5031354;28;20201;-75
2022/08/04 11:30:43;;;;;;;0.40;0.40;;;22.80;99.90;;;;;;5030860;28;20192;-76
2022/08/04 11:33:20;;;;;;;0.50;0.50;;;22.70;99.90;;;;;;5046309;28;20209;-75
2022/08/04 11:35:55;;;;;;;0.30;0.30;;;22.60;99.90;;;;;;5031168;28;20194;-75
2022/08/04 11:38:27;;;;;;;0.13;0.13;;;22.80;99.90;;;;;;5030751;28;20186;-76
2022/08/04 11:40:57;;;;;;;0.50;0.50;;;22.90;99.90;;;;;;5029694;28;20198;-76
2022/08/04 11:43:43;;;;;;;0.32;0.32;;;23.10;99.90;;;;;;5029308;28;20233;-76
2022/08/04 11:46:17;;;;;;;0.40;0.40;;;23.20;99.90;;;;;;5031431;28;20615;-76
2022/08/04 11:49:00;;;;;;;0.30;0.30;;;23.40;99.90;;;;;;5035143;28;20706;-76
2022/08/04 11:51:27;;;;;;;0.35;0.35;;;23.80;99.90;;;;;;5051158;28;20637;-75
2022/08/04 11:53:54;;;;;;;4.70;0.40;;;23.90;99.90;;;;;;5050628;28;20552;-75
2022/08/04 11:56:20;;;;;;;2.83;0.52;;;23.50;99.90;;;;;;5050248;28;20669;-75
2022/08/04 11:58:49;;;;;;;10.57;0.93;;;23.50;99.90;;;;;;5049590;28;20186;-75
2022/08/04 12:01:40;;;;;;;0.60;0.60;;;23.40;99.90;;;;;;5049944;28;20284;-75
2022/08/04 12:04:33;;;;;;;1.33;0.90;;;23.00;99.90;;;;;;5037102;28;20218;-75
2022/08/04 12:07:17;;;;;;;0.77;0.50;;;22.90;99.90;;;;;;5031805;28;20199;-75
2022/08/04 12:10:00;;;;;;;1.05;0.50;;;22.60;99.90;;;;;;5034335;28;20716;-75
2022/08/04 12:12:36;;;;;;;0.40;0.40;;;22.10;99.90;;;;;;5034050;28;20212;-76
2022/08/04 12:15:31;;;;;;;0.68;0.63;;;21.90;99.90;;;;;;5046094;28;20193;-74
2022/08/04 12:18:33;;;;;;;2.20;0.93;;;21.70;99.90;;;;;;5053237;28;20190;-74
2022/08/04 12:21:14;;;;;;;2.17;0.80;;;21.30;99.90;;;;;;5055609;28;20231;-74
2022/08/04 12:23:43;;;;;;;0.28;0.25;;;21.20;99.90;;;;;;5053813;28;20193;-74
2022/08/04 12:26:31;;;;;;;0.30;0.30;;;21.20;99.90;;;;;;5054072;28;20599;-74
2022/08/04 12:29:01;;;;;;;3.88;0.50;;;21.20;99.90;;;;;;5053865;28;20219;-74
2022/08/04 12:31:32;;;;;;;1.20;0.40;;;20.80;99.90;;;;;;5053612;28;20200;-74
2022/08/04 12:34:07;;;;;;;0.47;0.43;;;20.50;99.90;;;;;;5069152;28;20746;-74
2022/08/04 12:36:54;;;;;;;0.60;0.60;;;20.40;99.90;;;;;;5053549;28;20189;-74
2022/08/04 12:39:21;;;;;;;0.35;0.35;;;20.40;99.90;;;;;;5053491;28;20193;-75
2022/08/04 12:42:20;;;;;;;1.20;0.63;;;20.40;99.90;;;;;;5052351;28;20193;-74
2022/08/04 12:44:52;;;;;;;5.45;1.05;;;20.70;99.90;;;;;;5053346;28;20864;-74
2022/08/04 12:47:23;;;;;;;0.52;0.52;;;20.90;99.90;;;;;;5053509;28;20182;-74
2022/08/04 12:49:51;;;;;;;0.30;0.30;;;21.10;99.90;;;;;;5053663;28;20673;-74
2022/08/04 12:52:19;;;;;;;0.30;0.30;;;21.10;99.90;;;;;;5053252;28;20712;-74
2022/08/04 12:54:50;;;;;;;1.92;0.93;;;21.30;99.90;;;;;;5053431;28;20186;-75
2022/08/04 12:57:17;;;;;;;1.20;0.40;;;21.80;99.90;;;;;;5053352;28;20201;-74
2022/08/04 12:59:44;;;;;;;0.95;0.68;;;21.70;99.90;;;;;;5051989;28;20197;-74
2022/08/04 13:02:22;;;;;;;0.20;0.20;;;22.10;99.90;;;;;;5051992;28;20259;-74
2022/08/04 13:04:49;;;;;;;0.88;0.35;;;22.70;99.90;;;;;;5046369;28;20197;-74
2022/08/04 13:07:19;;;;;;;1.13;0.65;;;23.10;99.90;;;;;;5051874;28;20613;-74
2022/08/04 13:09:46;;;;;;;0.63;0.50;;;23.40;99.90;;;;;;5051880;28;20199;-74
2022/08/04 13:12:14;;;;;;;0.52;0.52;;;23.30;99.90;;;;;;5051835;28;20224;-75
2022/08/04 13:14:43;;;;;;;0.40;0.40;;;23.00;99.90;;;;;;5051624;28;20190;-75
2022/08/04 13:17:10;;;;;;;0.22;0.22;;;22.90;99.90;;;;;;5052279;28;20247;-75
2022/08/04 13:19:36;;;;;;;0.40;0.40;;;22.90;99.90;;;;;;5051387;28;20204;-75
2022/08/04 13:22:03;;;;;;;1.40;0.85;;;22.70;99.90;;;;;;5053031;28;20197;-75
2022/08/04 13:24:32;;;;;;;0.60;0.60;;;22.50;99.90;;;;;;5053008;28;20343;-75
2022/08/04 13:27:07;;;;;;;0.40;0.40;;;22.40;99.90;;;;;;5053191;28;20529;-74
2022/08/04 13:29:38;;;;;;;3.30;0.75;;;22.30;99.90;;;;;;5052590;28;20284;-75
2022/08/04 13:32:05;;;;;;;2.63;0.70;;;22.50;99.90;;;;;;5052568;28;20669;-72
2022/08/04 13:34:32;;;;;;;1.50;0.60;;;22.90;99.90;;;;;;5052469;28;20273;-75
2022/08/04 13:37:00;;;;;;;0.30;0.30;;;23.20;99.90;;;;;;5052866;28;20669;-75
2022/08/04 13:39:27;;;;;;;0.32;0.32;;;23.30;99.90;;;;;;5052533;28;20653;-76